createdAt,value
2023-10-16T00:00:11.417Z,1.00
2023-10-16T00:01:11.435Z,1.00
2023-10-16T00:02:11.343Z,0.90
2023-10-16T00:03:11.481Z,1.10
2023-10-16T00:04:11.421Z,1.00
2023-10-16T00:05:11.325Z,1.10
2023-10-16T00:06:11.318Z,1.10
2023-10-16T00:07:11.318Z,1.10
2023-10-16T00:08:11.296Z,1.10
2023-10-16T00:09:11.308Z,1.00
2023-10-16T00:10:11.264Z,1.00
2023-10-16T00:11:11.243Z,1.00
2023-10-16T00:12:11.366Z,1.00
2023-10-16T00:13:11.251Z,1.10
2023-10-16T00:14:11.220Z,1.00
2023-10-16T00:15:11.293Z,1.10
2023-10-16T00:16:11.237Z,1.00
2023-10-16T00:17:11.201Z,1.00
2023-10-16T00:18:11.236Z,1.10
2023-10-16T00:19:11.165Z,1.00
2023-10-16T00:20:11.153Z,1.00
2023-10-16T00:21:11.218Z,1.10
2023-10-16T00:22:11.170Z,0.90
2023-10-16T00:23:11.130Z,1.00
2023-10-16T00:24:11.195Z,1.10
2023-10-16T00:25:11.139Z,1.10
2023-10-16T00:26:11.095Z,1.00
2023-10-16T00:27:11.100Z,1.20
2023-10-16T00:28:11.115Z,1.10
2023-10-16T00:29:11.091Z,1.30
2023-10-16T00:30:11.062Z,1.30
2023-10-16T00:31:11.234Z,1.10
2023-10-16T00:32:11.029Z,1.20
2023-10-16T00:33:12.720Z,1.30
2023-10-16T00:34:11.035Z,1.10
2023-10-16T00:35:11.006Z,1.00
2023-10-16T00:36:10.982Z,0.90
2023-10-16T00:37:10.977Z,1.20
2023-10-16T00:38:10.958Z,1.00
2023-10-16T00:39:11.087Z,1.10
2023-10-16T00:40:10.941Z,1.20
2023-10-16T00:41:10.935Z,1.10
2023-10-16T00:42:10.930Z,1.00
2023-10-16T00:43:10.909Z,1.00
2023-10-16T00:44:10.918Z,1.00
2023-10-16T00:45:10.916Z,1.10
2023-10-16T00:46:10.986Z,1.10
2023-10-16T00:47:11.259Z,1.10
2023-10-16T00:48:10.883Z,1.10
2023-10-16T00:49:10.881Z,1.20
2023-10-16T00:50:10.859Z,1.20
2023-10-16T00:51:10.848Z,1.00
2023-10-16T00:52:10.830Z,1.10
2023-10-16T00:53:10.814Z,1.10
2023-10-16T00:54:10.818Z,1.10
2023-10-16T00:55:10.845Z,1.00
2023-10-16T00:56:10.798Z,1.00
2023-10-16T00:57:10.772Z,0.90
2023-10-16T00:58:10.780Z,1.10
2023-10-16T00:59:10.751Z,1.00
2023-10-16T01:00:10.738Z,1.30
2023-10-16T01:01:10.816Z,1.10
2023-10-16T01:02:10.803Z,1.00
2023-10-16T01:03:10.741Z,1.00
2023-10-16T01:04:10.752Z,1.00
2023-10-16T01:05:10.681Z,1.00
2023-10-16T01:06:10.700Z,1.00
2023-10-16T01:07:10.659Z,1.10
2023-10-16T01:08:10.645Z,1.10
2023-10-16T01:09:10.665Z,1.10
2023-10-16T01:10:10.624Z,1.00
2023-10-16T01:11:10.608Z,1.10
2023-10-16T01:12:10.625Z,1.00
2023-10-16T01:13:10.595Z,1.20
2023-10-16T01:14:10.601Z,1.00
2023-10-16T01:15:10.582Z,1.20
2023-10-16T01:16:10.599Z,1.00
2023-10-16T01:17:10.916Z,1.00
2023-10-16T01:18:10.627Z,1.00
2023-10-16T01:19:10.560Z,1.20
2023-10-16T01:20:10.536Z,1.00
2023-10-16T01:21:10.529Z,1.10
2023-10-16T01:22:10.504Z,1.00
2023-10-16T01:23:10.542Z,1.10
2023-10-16T01:24:10.486Z,0.90
2023-10-16T01:25:10.520Z,1.10
2023-10-16T01:26:10.472Z,0.90
2023-10-16T01:27:10.454Z,1.10
2023-10-16T01:28:10.473Z,1.10
2023-10-16T01:29:10.451Z,1.00
2023-10-16T01:30:10.452Z,1.00
2023-10-16T01:31:10.451Z,1.10
2023-10-16T01:32:10.417Z,0.90
2023-10-16T01:33:10.430Z,1.00
2023-10-16T01:34:10.404Z,1.00
2023-10-16T01:35:10.378Z,1.30
2023-10-16T01:36:10.372Z,1.00
2023-10-16T01:37:10.546Z,0.90
2023-10-16T01:38:10.331Z,1.00
2023-10-16T01:39:10.355Z,1.10
2023-10-16T01:40:10.315Z,1.10
2023-10-16T01:41:10.310Z,1.00
2023-10-16T01:42:10.303Z,1.00
2023-10-16T01:43:10.293Z,1.00
2023-10-16T01:44:10.275Z,1.00
2023-10-16T01:45:10.309Z,1.00
2023-10-16T01:46:10.421Z,1.10
2023-10-16T01:47:10.238Z,0.80
2023-10-16T01:48:10.241Z,1.00
2023-10-16T01:49:10.231Z,1.00
2023-10-16T01:50:10.242Z,0.90
2023-10-16T01:51:10.228Z,1.10
2023-10-16T01:52:10.194Z,1.00
2023-10-16T01:53:10.179Z,1.10
2023-10-16T01:54:10.212Z,1.00
2023-10-16T01:55:10.184Z,1.10
2023-10-16T01:56:10.166Z,1.10
2023-10-16T01:57:10.191Z,1.00
2023-10-16T01:58:10.251Z,1.10
2023-10-16T01:59:10.160Z,1.00
2023-10-16T02:00:10.144Z,1.00
2023-10-16T02:01:10.204Z,0.90
2023-10-16T02:02:10.129Z,1.10
2023-10-16T02:03:10.471Z,1.10
2023-10-16T02:04:10.132Z,0.90
2023-10-16T02:05:10.055Z,1.20
2023-10-16T02:06:10.201Z,1.10
2023-10-16T02:07:10.194Z,1.20
2023-10-16T02:08:10.034Z,1.10
2023-10-16T02:09:10.035Z,1.10
2023-10-16T02:10:10.008Z,1.30
2023-10-16T02:11:09.991Z,1.20
2023-10-16T02:12:10.002Z,1.10
2023-10-16T02:13:09.969Z,1.10
2023-10-16T02:14:09.973Z,1.00
2023-10-16T02:15:09.964Z,1.10
2023-10-16T02:16:10.035Z,1.20
2023-10-16T02:17:09.967Z,1.10
2023-10-16T02:18:09.917Z,1.10
2023-10-16T02:19:09.904Z,1.00
2023-10-16T02:20:09.907Z,1.30
2023-10-16T02:21:09.885Z,1.20
2023-10-16T02:22:09.911Z,1.20
2023-10-16T02:23:09.864Z,1.20
2023-10-16T02:24:09.874Z,1.10
2023-10-16T02:25:09.888Z,1.20
2023-10-16T02:26:09.854Z,1.30
2023-10-16T02:27:09.824Z,1.60
2023-10-16T02:28:09.925Z,1.30
2023-10-16T02:29:09.800Z,1.30
2023-10-16T02:30:09.794Z,1.20
2023-10-16T02:31:09.789Z,1.30
2023-10-16T02:32:09.782Z,1.40
2023-10-16T02:33:09.798Z,1.30
2023-10-16T02:34:09.760Z,1.20
2023-10-16T02:35:09.744Z,1.30
2023-10-16T02:36:09.748Z,1.20
2023-10-16T02:37:09.718Z,1.20
2023-10-16T02:38:09.711Z,1.30
2023-10-16T02:39:09.748Z,1.40
2023-10-16T02:40:09.702Z,1.70
2023-10-16T02:41:09.677Z,1.20
2023-10-16T02:42:09.672Z,1.30
2023-10-16T02:43:09.651Z,1.50
2023-10-16T02:44:09.699Z,1.40
2023-10-16T02:45:09.644Z,1.40
2023-10-16T02:46:09.638Z,1.30
2023-10-16T02:47:09.606Z,1.50
2023-10-16T02:48:09.614Z,1.20
2023-10-16T02:49:09.603Z,1.30
2023-10-16T02:50:09.609Z,1.20
2023-10-16T02:51:09.569Z,1.30
2023-10-16T02:52:09.551Z,1.30
2023-10-16T02:53:09.547Z,1.30
2023-10-16T02:54:09.548Z,1.20
2023-10-16T02:55:09.565Z,1.30
2023-10-16T02:56:09.524Z,1.30
2023-10-16T02:57:09.511Z,1.20
2023-10-16T02:58:09.523Z,1.20
2023-10-16T02:59:09.553Z,1.30
2023-10-16T03:00:09.525Z,1.30
2023-10-16T03:01:09.523Z,1.30
2023-10-16T03:02:09.472Z,1.30
2023-10-16T03:03:09.449Z,1.30
2023-10-16T03:04:09.459Z,1.20
2023-10-16T03:05:09.449Z,1.30
2023-10-16T03:06:09.434Z,1.10
2023-10-16T03:07:09.419Z,1.40
2023-10-16T03:08:09.414Z,1.20
2023-10-16T03:09:09.397Z,1.20
2023-10-16T03:10:09.396Z,1.20
2023-10-16T03:11:09.401Z,1.20
2023-10-16T03:12:09.353Z,1.30
2023-10-16T03:13:09.360Z,1.20
2023-10-16T03:14:09.349Z,1.30
2023-10-16T03:15:09.331Z,1.10
2023-10-16T03:16:09.319Z,1.80
2023-10-16T03:17:09.350Z,1.40
2023-10-16T03:18:09.314Z,1.50
2023-10-16T03:19:09.305Z,1.40
2023-10-16T03:20:09.273Z,1.30
2023-10-16T03:21:09.268Z,1.50
2023-10-16T03:22:09.279Z,1.60
2023-10-16T03:23:09.233Z,1.30
2023-10-16T03:24:09.244Z,1.50
2023-10-16T03:25:09.220Z,1.40
2023-10-16T03:26:09.213Z,1.20
2023-10-16T03:27:09.205Z,1.40
2023-10-16T03:28:09.218Z,1.40
2023-10-16T03:29:09.189Z,1.30
2023-10-16T03:30:09.174Z,1.50
2023-10-16T03:31:09.203Z,1.40
2023-10-16T03:32:09.178Z,1.40
2023-10-16T03:33:09.276Z,1.30
2023-10-16T03:34:09.154Z,1.60
2023-10-16T03:35:09.124Z,1.40
2023-10-16T03:36:09.110Z,1.50
2023-10-16T03:37:09.105Z,1.40
2023-10-16T03:38:09.088Z,1.30
2023-10-16T03:39:09.140Z,1.40
2023-10-16T03:40:09.109Z,1.50
2023-10-16T03:41:09.063Z,1.30
2023-10-16T03:42:09.046Z,1.40
2023-10-16T03:43:09.045Z,1.50
2023-10-16T03:44:09.955Z,1.50
2023-10-16T03:45:09.047Z,1.60
2023-10-16T03:46:09.043Z,1.80
2023-10-16T03:47:09.009Z,1.60
2023-10-16T03:48:08.986Z,1.70
2023-10-16T03:49:08.998Z,1.80
2023-10-16T03:50:08.966Z,1.50
2023-10-16T03:51:08.992Z,1.60
2023-10-16T03:52:08.958Z,1.60
2023-10-16T03:53:08.928Z,1.60
2023-10-16T03:54:08.957Z,1.60
2023-10-16T03:55:09.001Z,1.70
2023-10-16T03:56:08.892Z,1.80
2023-10-16T03:57:08.949Z,1.70
2023-10-16T03:58:08.886Z,1.80
2023-10-16T03:59:08.890Z,1.70
2023-10-16T04:00:08.883Z,1.80
2023-10-16T04:01:08.844Z,1.80
2023-10-16T04:02:08.844Z,1.60
2023-10-16T04:03:08.924Z,1.70
2023-10-16T04:04:08.922Z,1.70
2023-10-16T04:05:08.860Z,1.70
2023-10-16T04:06:08.799Z,1.90
2023-10-16T04:07:08.791Z,1.90
2023-10-16T04:08:08.769Z,1.70
2023-10-16T04:09:08.804Z,1.90
2023-10-16T04:10:08.757Z,1.70
2023-10-16T04:11:08.758Z,2.10
2023-10-16T04:12:08.771Z,2.00
2023-10-16T04:13:08.747Z,1.70
2023-10-16T04:14:08.736Z,1.80
2023-10-16T04:15:08.752Z,1.90
2023-10-16T04:16:08.699Z,2.00
2023-10-16T04:17:08.689Z,1.80
2023-10-16T04:18:08.683Z,1.90
2023-10-16T04:19:08.673Z,1.80
2023-10-16T04:20:08.658Z,2.10
2023-10-16T04:21:08.696Z,1.80
2023-10-16T04:22:08.625Z,1.80
2023-10-16T04:23:08.619Z,1.80
2023-10-16T04:24:08.631Z,2.00
2023-10-16T04:25:08.643Z,1.90
2023-10-16T04:26:08.588Z,2.00
2023-10-16T04:27:08.856Z,1.90
2023-10-16T04:28:08.572Z,2.00
2023-10-16T04:29:08.576Z,1.90
2023-10-16T04:30:09.622Z,1.80
2023-10-16T04:31:08.622Z,1.90
2023-10-16T04:32:08.532Z,2.00
2023-10-16T04:33:08.571Z,2.10
2023-10-16T04:34:08.526Z,2.10
2023-10-16T04:35:08.498Z,1.90
2023-10-16T04:36:08.498Z,1.90
2023-10-16T04:37:08.488Z,1.90
2023-10-16T04:38:08.479Z,1.90
2023-10-16T04:39:08.500Z,1.80
2023-10-16T04:40:08.478Z,1.90
2023-10-16T04:41:08.436Z,2.00
2023-10-16T04:42:08.419Z,1.80
2023-10-16T04:43:08.456Z,1.80
2023-10-16T04:44:08.436Z,1.90
2023-10-16T04:45:08.439Z,2.00
2023-10-16T04:46:08.432Z,2.00
2023-10-16T04:47:08.393Z,1.90
2023-10-16T04:48:08.469Z,2.00
2023-10-16T04:49:08.346Z,2.10
2023-10-16T04:50:08.382Z,1.90
2023-10-16T04:51:29.266Z,2.10
2023-10-16T04:52:08.859Z,1.90
2023-10-16T04:53:08.318Z,2.00
2023-10-16T04:54:08.302Z,2.10
2023-10-16T04:55:08.397Z,2.00
2023-10-16T04:56:08.271Z,2.00
2023-10-16T04:57:08.357Z,2.10
2023-10-16T04:58:08.256Z,2.10
2023-10-16T04:59:08.263Z,2.20
2023-10-16T05:00:08.238Z,2.30
2023-10-16T05:01:08.280Z,2.10
2023-10-16T05:02:08.223Z,2.20
2023-10-16T05:03:08.331Z,2.00
2023-10-16T05:04:08.247Z,2.00
2023-10-16T05:05:08.196Z,2.00
2023-10-16T05:06:08.182Z,1.90
2023-10-16T05:07:08.194Z,2.20
2023-10-16T05:08:08.181Z,2.10
2023-10-16T05:09:08.209Z,2.20
2023-10-16T05:10:08.142Z,2.00
2023-10-16T05:11:08.119Z,2.00
2023-10-16T05:12:08.130Z,2.40
2023-10-16T05:13:08.104Z,2.10
2023-10-16T05:14:08.102Z,2.00
2023-10-16T05:15:08.128Z,2.10
2023-10-16T05:16:08.150Z,2.00
2023-10-16T05:17:14.604Z,2.10
2023-10-16T05:18:08.050Z,2.10
2023-10-16T05:19:08.077Z,2.00
2023-10-16T05:20:08.037Z,1.90
2023-10-16T05:21:08.045Z,2.20
2023-10-16T05:22:08.068Z,2.30
2023-10-16T05:23:07.994Z,2.20
2023-10-16T05:24:08.030Z,2.20
2023-10-16T05:25:08.064Z,2.00
2023-10-16T05:26:07.976Z,2.10
2023-10-16T05:27:07.996Z,2.00
2023-10-16T05:28:07.950Z,2.30
2023-10-16T05:29:07.968Z,2.10
2023-10-16T05:30:07.940Z,2.30
2023-10-16T05:31:07.959Z,2.20
2023-10-16T05:32:07.914Z,2.40
2023-10-16T05:33:07.930Z,2.00
2023-10-16T05:34:07.892Z,2.10
2023-10-16T05:35:07.890Z,2.40
2023-10-16T05:36:07.879Z,2.10
2023-10-16T05:37:07.869Z,2.20
2023-10-16T05:38:07.842Z,2.20
2023-10-16T05:39:07.889Z,2.20
2023-10-16T05:40:07.826Z,1.90
2023-10-16T05:41:07.811Z,1.90
2023-10-16T05:42:07.804Z,2.20
2023-10-16T05:43:07.794Z,2.10
2023-10-16T05:44:07.788Z,2.10
2023-10-16T05:45:07.888Z,2.10
2023-10-16T05:46:07.831Z,2.00
2023-10-16T05:47:07.795Z,2.30
2023-10-16T05:48:07.780Z,2.20
2023-10-16T05:49:07.770Z,2.40
2023-10-16T05:50:07.719Z,2.20
2023-10-16T05:51:07.762Z,2.20
2023-10-16T05:52:07.704Z,2.10
2023-10-16T05:53:07.690Z,2.40
2023-10-16T05:54:07.726Z,2.40
2023-10-16T05:55:07.698Z,2.40
2023-10-16T05:56:07.660Z,2.20
2023-10-16T05:57:07.681Z,2.10
2023-10-16T05:58:07.631Z,2.60
2023-10-16T05:59:07.633Z,2.40
2023-10-16T06:00:07.609Z,2.50
2023-10-16T06:01:07.733Z,2.40
2023-10-16T06:02:07.613Z,2.70
2023-10-16T06:03:07.650Z,2.30
2023-10-16T06:04:07.699Z,2.30
2023-10-16T06:05:07.729Z,2.40
2023-10-16T06:06:07.577Z,2.50
2023-10-16T06:07:07.617Z,2.30
2023-10-16T06:08:07.534Z,2.40
2023-10-16T06:09:07.562Z,2.40
2023-10-16T06:10:07.572Z,2.20
2023-10-16T06:11:07.503Z,2.40
2023-10-16T06:12:07.507Z,2.50
2023-10-16T06:13:07.502Z,2.20
2023-10-16T06:14:07.489Z,2.20
2023-10-16T06:15:07.500Z,2.40
2023-10-16T06:16:07.485Z,2.20
2023-10-16T06:17:07.442Z,2.30
2023-10-16T06:18:07.466Z,2.20
2023-10-16T06:19:07.433Z,2.50
2023-10-16T06:20:07.406Z,2.30
2023-10-16T06:21:07.439Z,2.50
2023-10-16T06:22:07.468Z,2.20
2023-10-16T06:23:07.380Z,2.50
2023-10-16T06:24:07.381Z,2.80
2023-10-16T06:25:07.467Z,2.20
2023-10-16T06:26:07.359Z,2.50
2023-10-16T06:27:07.349Z,2.40
2023-10-16T06:28:07.336Z,2.60
2023-10-16T06:29:07.312Z,2.30
2023-10-16T06:30:07.419Z,2.40
2023-10-16T06:31:07.369Z,2.60
2023-10-16T06:32:07.310Z,2.50
2023-10-16T06:33:07.459Z,2.30
2023-10-16T06:34:07.278Z,2.40
2023-10-16T06:35:07.248Z,2.30
2023-10-16T06:36:07.274Z,2.70
2023-10-16T06:37:07.236Z,2.30
2023-10-16T06:38:07.240Z,2.70
2023-10-16T06:39:07.418Z,2.40
2023-10-16T06:40:07.265Z,2.60
2023-10-16T06:41:07.196Z,2.60
2023-10-16T06:42:07.208Z,2.70
2023-10-16T06:43:07.210Z,2.40
2023-10-16T06:44:07.155Z,2.70
2023-10-16T06:45:07.257Z,2.50
2023-10-16T06:46:07.196Z,2.40
2023-10-16T06:47:07.189Z,2.30
2023-10-16T06:48:07.222Z,2.90
2023-10-16T06:49:07.133Z,2.50
2023-10-16T06:50:07.111Z,2.70
2023-10-16T06:51:07.125Z,2.60
2023-10-16T06:52:07.116Z,2.70
2023-10-16T06:53:07.084Z,3.00
2023-10-16T06:54:07.074Z,2.90
2023-10-16T06:55:07.075Z,3.40
2023-10-16T06:56:07.065Z,2.60
2023-10-16T06:57:07.052Z,3.00
2023-10-16T06:58:09.738Z,2.80
2023-10-16T06:59:07.026Z,2.90
2023-10-16T07:00:06.998Z,2.80
2023-10-16T07:01:07.026Z,2.90
2023-10-16T07:02:06.976Z,3.00
2023-10-16T07:03:07.083Z,2.90
2023-10-16T07:04:07.010Z,3.00
2023-10-16T07:05:06.985Z,3.00
2023-10-16T07:06:07.017Z,3.40
2023-10-16T07:07:06.931Z,3.10
2023-10-16T07:08:06.941Z,3.10
2023-10-16T07:09:06.950Z,3.00
2023-10-16T07:10:06.888Z,3.20
2023-10-16T07:11:06.886Z,3.00
2023-10-16T07:12:06.872Z,3.10
2023-10-16T07:13:06.952Z,2.80
2023-10-16T07:14:06.862Z,3.00
2023-10-16T07:15:06.878Z,3.30
2023-10-16T07:16:06.925Z,2.60
2023-10-16T07:17:06.832Z,3.00
2023-10-16T07:18:06.905Z,3.10
2023-10-16T07:19:06.849Z,2.90
2023-10-16T07:20:06.785Z,2.90
2023-10-16T07:21:06.824Z,2.90
2023-10-16T07:22:06.853Z,3.00
2023-10-16T07:23:06.762Z,3.00
2023-10-16T07:24:06.771Z,3.00
2023-10-16T07:25:06.771Z,2.90
2023-10-16T07:26:06.762Z,3.00
2023-10-16T07:27:06.782Z,3.00
2023-10-16T07:28:06.705Z,2.80
2023-10-16T07:29:06.700Z,3.10
2023-10-16T07:30:06.733Z,2.80
2023-10-16T07:31:07.107Z,2.90
2023-10-16T07:32:06.665Z,2.80
2023-10-16T07:33:06.718Z,2.80
2023-10-16T07:34:06.700Z,3.10
2023-10-16T07:35:06.640Z,2.90
2023-10-16T07:36:06.621Z,3.00
2023-10-16T07:37:06.645Z,2.70
2023-10-16T07:38:06.688Z,2.90
2023-10-16T07:39:06.654Z,2.80
2023-10-16T07:40:06.633Z,2.70
2023-10-16T07:41:06.575Z,3.00
2023-10-16T07:42:06.569Z,3.00
2023-10-16T07:43:06.582Z,2.90
2023-10-16T07:44:06.573Z,2.80
2023-10-16T07:45:06.561Z,2.90
2023-10-16T07:46:06.608Z,3.30
2023-10-16T07:47:06.534Z,3.10
2023-10-16T07:48:06.533Z,3.10
2023-10-16T07:49:06.539Z,2.80
2023-10-16T07:50:06.498Z,2.90
2023-10-16T07:51:06.508Z,3.50
2023-10-16T07:52:06.466Z,3.10
2023-10-16T07:53:06.448Z,3.00
2023-10-16T07:54:06.447Z,3.00
2023-10-16T07:55:06.468Z,3.00
2023-10-16T07:56:06.429Z,3.10
2023-10-16T07:57:06.465Z,3.10
2023-10-16T07:58:06.480Z,3.00
2023-10-16T07:59:06.419Z,2.70
2023-10-16T08:00:06.374Z,3.30
2023-10-16T08:01:06.448Z,3.00
2023-10-16T08:02:06.381Z,2.80
2023-10-16T08:03:06.988Z,2.80
2023-10-16T08:04:06.412Z,2.90
2023-10-16T08:05:06.332Z,3.10
2023-10-16T08:06:06.324Z,2.80
2023-10-16T08:07:06.797Z,3.00
2023-10-16T08:08:06.292Z,2.70
2023-10-16T08:09:06.307Z,2.80
2023-10-16T08:10:06.400Z,2.90
2023-10-16T08:11:06.335Z,2.80
2023-10-16T08:12:06.244Z,3.00
2023-10-16T08:13:06.243Z,3.00
2023-10-16T08:14:06.254Z,2.80
2023-10-16T08:15:06.240Z,2.80
2023-10-16T08:16:06.359Z,3.40
2023-10-16T08:17:06.596Z,3.00
2023-10-16T08:18:06.321Z,3.00
2023-10-16T08:19:06.195Z,3.00
2023-10-16T08:20:06.153Z,2.80
2023-10-16T08:21:06.216Z,2.90
2023-10-16T08:22:06.285Z,3.00
2023-10-16T08:23:06.126Z,2.90
2023-10-16T08:24:06.121Z,2.80
2023-10-16T08:25:06.257Z,2.90
2023-10-16T08:26:06.127Z,3.20
2023-10-16T08:27:06.140Z,3.20
2023-10-16T08:28:06.170Z,3.00
2023-10-16T08:29:06.062Z,3.00
2023-10-16T08:30:06.076Z,3.20
2023-10-16T08:31:06.118Z,3.40
2023-10-16T08:32:06.035Z,3.10
2023-10-16T08:33:06.071Z,3.60
2023-10-16T08:34:06.109Z,3.40
2023-10-16T08:35:06.756Z,3.60
2023-10-16T08:36:06.029Z,3.60
2023-10-16T08:37:06.041Z,3.80
2023-10-16T08:38:05.956Z,3.60
2023-10-16T08:39:06.049Z,3.40
2023-10-16T08:40:06.742Z,3.60
2023-10-16T08:41:05.932Z,3.40
2023-10-16T08:42:05.943Z,3.20
2023-10-16T08:43:06.076Z,3.30
2023-10-16T08:44:05.916Z,3.10
2023-10-16T08:45:05.935Z,3.50
2023-10-16T08:46:05.990Z,3.10
2023-10-16T08:47:05.895Z,3.40
2023-10-16T08:48:05.954Z,3.60
2023-10-16T08:49:05.923Z,3.30
2023-10-16T08:50:05.861Z,3.30
2023-10-16T08:51:05.951Z,3.10
2023-10-16T08:52:05.969Z,3.40
2023-10-16T08:53:05.801Z,2.90
2023-10-16T08:54:05.835Z,2.70
2023-10-16T08:55:05.835Z,3.00
2023-10-16T08:56:05.790Z,2.80
2023-10-16T08:57:05.822Z,2.90
2023-10-16T08:58:05.788Z,2.90
2023-10-16T08:59:06.091Z,2.80
2023-10-16T09:00:05.733Z,2.90
2023-10-16T09:01:05.811Z,2.80
2023-10-16T09:02:05.718Z,2.60
2023-10-16T09:03:05.778Z,2.70
2023-10-16T09:04:05.788Z,2.80
2023-10-16T09:05:05.689Z,2.80
2023-10-16T09:06:05.679Z,2.80
2023-10-16T09:07:05.779Z,2.70
2023-10-16T09:08:05.652Z,2.40
2023-10-16T09:09:05.683Z,2.70
2023-10-16T09:10:05.660Z,2.90
2023-10-16T09:11:05.637Z,3.00
2023-10-16T09:12:05.622Z,3.10
2023-10-16T09:13:05.684Z,2.70
2023-10-16T09:14:05.595Z,2.90
2023-10-16T09:15:05.595Z,2.50
2023-10-16T09:16:05.602Z,2.80
2023-10-16T09:17:05.599Z,2.90
2023-10-16T09:18:05.571Z,2.80
2023-10-16T09:19:05.638Z,2.90
2023-10-16T09:20:06.390Z,2.70
2023-10-16T09:21:05.572Z,2.70
2023-10-16T09:22:05.610Z,2.70
2023-10-16T09:23:05.493Z,2.40
2023-10-16T09:24:05.476Z,2.80
2023-10-16T09:25:05.531Z,2.80
2023-10-16T09:26:05.454Z,2.70
2023-10-16T09:27:05.510Z,2.60
2023-10-16T09:28:05.494Z,2.70
2023-10-16T09:29:05.593Z,2.80
2023-10-16T09:30:05.560Z,2.50
2023-10-16T09:31:12.410Z,2.40
2023-10-16T09:32:05.499Z,2.50
2023-10-16T09:33:05.471Z,2.20
2023-10-16T09:34:05.403Z,2.60
2023-10-16T09:35:05.379Z,2.60
2023-10-16T09:36:05.361Z,2.50
2023-10-16T09:37:05.392Z,2.40
2023-10-16T09:38:05.342Z,2.40
2023-10-16T09:39:05.346Z,2.50
2023-10-16T09:40:05.377Z,2.30
2023-10-16T09:41:05.330Z,2.30
2023-10-16T09:42:05.296Z,2.20
2023-10-16T09:43:05.309Z,2.20
2023-10-16T09:44:05.264Z,2.30
2023-10-16T09:45:05.310Z,2.10
2023-10-16T09:46:05.285Z,2.30
2023-10-16T09:47:05.276Z,2.30
2023-10-16T09:48:05.289Z,2.30
2023-10-16T09:49:05.287Z,2.20
2023-10-16T09:50:05.194Z,2.20
2023-10-16T09:51:05.255Z,2.40
2023-10-16T09:52:07.131Z,2.30
2023-10-16T09:53:05.236Z,2.40
2023-10-16T09:54:05.157Z,2.30
2023-10-16T09:55:05.226Z,2.20
2023-10-16T09:56:05.195Z,2.30
2023-10-16T09:57:05.187Z,2.30
2023-10-16T09:58:05.146Z,2.20
2023-10-16T09:59:05.140Z,2.20
2023-10-16T10:00:05.106Z,2.10
2023-10-16T10:01:05.097Z,2.20
2023-10-16T10:02:05.199Z,2.20
2023-10-16T10:03:05.145Z,2.40
2023-10-16T10:04:05.293Z,2.00
2023-10-16T10:05:05.054Z,2.30
2023-10-16T10:06:05.112Z,2.30
2023-10-16T10:07:05.058Z,2.10
2023-10-16T10:08:05.011Z,2.10
2023-10-16T10:09:05.037Z,2.00
2023-10-16T10:10:04.996Z,2.10
2023-10-16T10:11:17.978Z,2.30
2023-10-16T10:12:04.971Z,2.10
2023-10-16T10:13:04.983Z,2.10
2023-10-16T10:14:05.004Z,2.10
2023-10-16T10:15:04.966Z,2.10
2023-10-16T10:16:04.972Z,2.20
2023-10-16T10:17:04.998Z,1.90
2023-10-16T10:18:04.939Z,2.10
2023-10-16T10:19:04.981Z,2.10
2023-10-16T10:20:04.892Z,1.90
2023-10-16T10:21:04.905Z,2.00
2023-10-16T10:22:04.884Z,2.30
2023-10-16T10:23:04.867Z,1.90
2023-10-16T10:24:04.861Z,2.10
2023-10-16T10:25:05.045Z,2.00
2023-10-16T10:26:04.843Z,2.20
2023-10-16T10:27:04.855Z,2.20
2023-10-16T10:28:04.858Z,2.00
2023-10-16T10:29:04.828Z,1.90
2023-10-16T10:30:04.779Z,2.20
2023-10-16T10:31:04.783Z,2.00
2023-10-16T10:32:04.849Z,1.70
2023-10-16T10:33:04.810Z,2.10
2023-10-16T10:34:04.764Z,2.00
2023-10-16T10:35:04.733Z,2.00
2023-10-16T10:36:04.734Z,1.90
2023-10-16T10:37:04.789Z,2.20
2023-10-16T10:38:04.696Z,2.10
2023-10-16T10:39:04.759Z,2.00
2023-10-16T10:40:04.706Z,2.20
2023-10-16T10:41:04.668Z,1.80
2023-10-16T10:42:05.066Z,2.00
2023-10-16T10:43:04.659Z,2.00
2023-10-16T10:44:04.660Z,1.90
2023-10-16T10:45:04.718Z,2.10
2023-10-16T10:46:04.738Z,1.90
2023-10-16T10:47:04.637Z,2.00
2023-10-16T10:48:04.624Z,2.00
2023-10-16T10:49:06.240Z,1.90
2023-10-16T10:50:04.637Z,1.80
2023-10-16T10:51:04.614Z,1.70
2023-10-16T10:52:04.572Z,1.90
2023-10-16T10:53:04.548Z,1.90
2023-10-16T10:54:04.546Z,1.70
2023-10-16T10:55:04.607Z,1.90
2023-10-16T10:56:04.514Z,1.70
2023-10-16T10:57:05.293Z,1.80
2023-10-16T10:58:04.536Z,1.60
2023-10-16T10:59:04.542Z,1.80
2023-10-16T11:00:04.460Z,1.80
2023-10-16T11:01:04.499Z,1.70
2023-10-16T11:02:04.463Z,1.70
2023-10-16T11:03:04.530Z,1.80
2023-10-16T11:04:04.499Z,2.00
2023-10-16T11:05:04.410Z,1.80
2023-10-16T11:06:04.394Z,1.90
2023-10-16T11:07:04.471Z,1.60
2023-10-16T11:08:04.408Z,1.90
2023-10-16T11:09:04.393Z,1.60
2023-10-16T11:10:04.363Z,1.60
2023-10-16T11:11:04.329Z,1.80
2023-10-16T11:12:04.333Z,1.60
2023-10-16T11:13:04.362Z,1.60
2023-10-16T11:14:04.336Z,1.50
2023-10-16T11:15:04.328Z,1.70
2023-10-16T11:16:04.435Z,1.60
2023-10-16T11:17:04.274Z,1.60
2023-10-16T11:18:04.353Z,1.60
2023-10-16T11:19:04.299Z,1.60
2023-10-16T11:20:04.283Z,1.50
2023-10-16T11:21:04.295Z,1.20
2023-10-16T11:22:04.240Z,1.40
2023-10-16T11:23:05.132Z,1.30
2023-10-16T11:24:04.222Z,1.30
2023-10-16T11:25:04.241Z,1.20
2023-10-16T11:26:04.195Z,1.10
2023-10-16T11:27:04.182Z,1.30
2023-10-16T11:28:04.191Z,1.30
2023-10-16T11:29:04.146Z,1.40
2023-10-16T11:30:04.143Z,1.30
2023-10-16T11:31:04.203Z,1.10
2023-10-16T11:32:04.152Z,1.00
2023-10-16T11:33:04.185Z,1.00
2023-10-16T11:34:04.535Z,1.00
2023-10-16T11:35:04.658Z,1.20
2023-10-16T11:36:04.467Z,1.10
2023-10-16T11:37:04.046Z,1.30
2023-10-16T11:38:04.090Z,1.10
2023-10-16T11:39:04.054Z,1.40
2023-10-16T11:40:04.078Z,1.30
2023-10-16T11:41:04.005Z,1.30
2023-10-16T11:42:03.999Z,1.50
2023-10-16T11:43:04.034Z,1.10
2023-10-16T11:44:04.006Z,1.20
2023-10-16T11:45:03.968Z,1.20
2023-10-16T11:46:04.019Z,1.10
2023-10-16T11:47:04.006Z,1.20
2023-10-16T11:48:04.006Z,1.20
2023-10-16T11:49:04.084Z,1.00
2023-10-16T11:50:03.912Z,1.30
2023-10-16T11:51:03.909Z,1.20
2023-10-16T11:52:03.954Z,1.40
2023-10-16T11:53:03.882Z,1.20
2023-10-16T11:54:03.895Z,1.10
2023-10-16T11:55:03.961Z,0.90
2023-10-16T11:56:03.857Z,1.10
2023-10-16T11:57:03.861Z,1.20
2023-10-16T11:58:03.850Z,1.10
2023-10-16T11:59:03.825Z,1.10
2023-10-16T12:00:03.852Z,1.10
2023-10-16T12:02:04.848Z,1.20
2023-10-16T12:03:03.781Z,1.20
2023-10-16T12:04:03.810Z,1.30
2023-10-16T12:05:03.812Z,1.30
2023-10-16T12:06:03.776Z,1.10
2023-10-16T12:07:03.740Z,1.10
2023-10-16T12:08:03.723Z,1.10
2023-10-16T12:09:03.773Z,1.20
2023-10-16T12:10:03.738Z,1.10
2023-10-16T12:11:03.727Z,1.10
2023-10-16T12:12:03.673Z,1.30
2023-10-16T12:13:03.695Z,1.10
2023-10-16T12:14:03.672Z,1.30
2023-10-16T12:15:03.632Z,1.20
2023-10-16T12:16:03.652Z,1.60
2023-10-16T12:17:03.641Z,1.30
2023-10-16T12:18:03.663Z,1.30
2023-10-16T12:19:03.615Z,1.10
2023-10-16T12:20:03.576Z,1.30
2023-10-16T12:21:03.622Z,1.30
2023-10-16T12:22:03.664Z,1.20
2023-10-16T12:23:03.620Z,1.10
2023-10-16T12:24:03.550Z,1.00
2023-10-16T12:25:03.521Z,1.10
2023-10-16T12:26:03.565Z,1.20
2023-10-16T12:27:03.526Z,1.20
2023-10-16T12:28:03.586Z,1.20
2023-10-16T12:29:03.491Z,1.10
2023-10-16T12:30:03.483Z,0.90
2023-10-16T12:31:03.495Z,0.90
2023-10-16T12:32:03.456Z,1.10
2023-10-16T12:33:03.486Z,0.90
2023-10-16T12:34:03.493Z,1.00
2023-10-16T12:35:03.427Z,1.00
2023-10-16T12:36:03.427Z,0.80
2023-10-16T12:37:03.427Z,0.90
2023-10-16T12:38:03.563Z,0.90
2023-10-16T12:39:03.387Z,0.90
2023-10-16T12:40:03.464Z,1.00
2023-10-16T12:41:03.364Z,1.00
2023-10-16T12:42:03.396Z,1.20
2023-10-16T12:43:03.389Z,1.10
2023-10-16T12:44:03.349Z,1.00
2023-10-16T12:45:03.365Z,1.10
2023-10-16T12:46:03.380Z,1.20
2023-10-16T12:47:03.306Z,1.20
2023-10-16T12:48:03.322Z,1.40
2023-10-16T12:49:03.301Z,1.20
2023-10-16T12:50:03.275Z,1.00
2023-10-16T12:51:10.297Z,1.10
2023-10-16T12:52:03.241Z,1.10
2023-10-16T12:53:03.232Z,1.40
2023-10-16T12:54:03.248Z,1.20
2023-10-16T12:55:03.328Z,1.40
2023-10-16T12:56:03.208Z,1.10
2023-10-16T12:57:03.198Z,1.10
2023-10-16T12:58:03.202Z,1.20
2023-10-16T12:59:03.227Z,1.10
2023-10-16T13:00:03.202Z,1.20
2023-10-16T13:01:04.660Z,1.10
2023-10-16T13:02:03.169Z,1.30
2023-10-16T13:03:03.147Z,1.30
2023-10-16T13:04:03.229Z,1.50
2023-10-16T13:05:03.174Z,1.60
2023-10-16T13:06:03.136Z,1.40
2023-10-16T13:07:03.117Z,1.40
2023-10-16T13:08:03.199Z,1.40
2023-10-16T13:09:03.093Z,1.20
2023-10-16T13:10:03.184Z,1.40
2023-10-16T13:11:03.146Z,1.50
2023-10-16T13:12:03.076Z,1.30
2023-10-16T13:13:03.070Z,1.40
2023-10-16T13:14:03.031Z,1.40
2023-10-16T13:15:03.040Z,1.40
2023-10-16T13:16:03.068Z,1.30
2023-10-16T13:17:03.007Z,1.20
2023-10-16T13:18:03.033Z,1.40
2023-10-16T13:19:02.976Z,1.50